Terminal Aerodrome Forecast
Issued by NWS Memphis, TN

Home | Current Version | Previous Version | Text Only | Print | Product List | Glossary On
Versions: 1 2 3 4 5 6 7 8 9 10 11 12 13 14 15 16 17 18 19 20
605
FTUS44 KMEG 192323
TAFMKL
TAF
KMKL 192323Z 2000/2024 19006KT P6SM -SHRA SCT015 OVC090
      TEMPO 2002/2006 6SM -SHRA BR BKN015
     FM200600 20005KT 5SM BR VCSH BKN009 OVC012
      TEMPO 2008/2012 2SM -DZ BR BKN004 OVC009
     FM201600 20008KT P6SM VCSH BKN015 OVC150
     FM202000 20010KT P6SM SCT025 BKN150=

USA.gov is the U.S. government's official web portal to all federal, state and local government web resources and services.